sensor_id;sensor_type;location;lat;lon;timestamp;temperature;humidity
63219;DHT22;49320;52.512;13.448;2023-03-14T00:02:14;15.80;82.70
63219;DHT22;49320;52.512;13.448;2023-03-14T00:04:41;16.00;81.90
63219;DHT22;49320;52.512;13.448;2023-03-14T00:07:11;15.90;82.90
63219;DHT22;49320;52.512;13.448;2023-03-14T00:09:38;16.00;82.50
63219;DHT22;49320;52.512;13.448;2023-03-14T00:12:05;15.80;82.80
63219;DHT22;49320;52.512;13.448;2023-03-14T00:14:33;15.90;82.90
63219;DHT22;49320;52.512;13.448;2023-03-14T00:17:00;15.80;82.70
63219;DHT22;49320;52.512;13.448;2023-03-14T00:19:27;15.80;82.70
63219;DHT22;49320;52.512;13.448;2023-03-14T00:21:54;15.70;82.80
63219;DHT22;49320;52.512;13.448;2023-03-14T00:24:20;15.70;80.90
63219;DHT22;49320;52.512;13.448;2023-03-14T00:26:47;15.70;82.80
63219;DHT22;49320;52.512;13.448;2023-03-14T00:29:14;15.60;83.00
63219;DHT22;49320;52.512;13.448;2023-03-14T00:31:41;15.60;83.00
63219;DHT22;49320;52.512;13.448;2023-03-14T00:34:08;15.60;83.00
63219;DHT22;49320;52.512;13.448;2023-03-14T00:36:35;15.60;83.10
63219;DHT22;49320;52.512;13.448;2023-03-14T00:39:01;15.50;83.10
63219;DHT22;49320;52.512;13.448;2023-03-14T00:41:28;15.50;82.60
63219;DHT22;49320;52.512;13.448;2023-03-14T00:43:55;15.40;81.70
63219;DHT22;49320;52.512;13.448;2023-03-14T00:46:22;15.40;81.60
63219;DHT22;49320;52.512;13.448;2023-03-14T00:48:49;15.40;83.40
63219;DHT22;49320;52.512;13.448;2023-03-14T00:51:16;15.40;83.50
63219;DHT22;49320;52.512;13.448;2023-03-14T00:53:43;15.40;83.50
63219;DHT22;49320;52.512;13.448;2023-03-14T00:56:12;15.30;83.60
63219;DHT22;49320;52.512;13.448;2023-03-14T00:58:40;15.30;83.70
63219;DHT22;49320;52.512;13.448;2023-03-14T01:01:09;15.30;83.90
63219;DHT22;49320;52.512;13.448;2023-03-14T01:03:39;15.20;83.80
63219;DHT22;49320;52.512;13.448;2023-03-14T01:06:11;15.20;84.10
63219;DHT22;49320;52.512;13.448;2023-03-14T01:08:40;15.20;84.10
63219;DHT22;49320;52.512;13.448;2023-03-14T01:11:10;15.10;84.30
63219;DHT22;49320;52.512;13.448;2023-03-14T01:13:39;15.10;84.40
63219;DHT22;49320;52.512;13.448;2023-03-14T01:16:09;15.10;84.50
63219;DHT22;49320;52.512;13.448;2023-03-14T01:18:38;15.10;84.40
63219;DHT22;49320;52.512;13.448;2023-03-14T01:21:18;15.10;84.50
63219;DHT22;49320;52.512;13.448;2023-03-14T01:23:47;15.00;83.20
63219;DHT22;49320;52.512;13.448;2023-03-14T01:26:18;15.00;84.80
63219;DHT22;49320;52.512;13.448;2023-03-14T01:28:47;15.00;84.70
63219;DHT22;49320;52.512;13.448;2023-03-14T01:31:16;14.90;84.80
63219;DHT22;49320;52.512;13.448;2023-03-14T01:33:43;14.90;84.80
63219;DHT22;49320;52.512;13.448;2023-03-14T01:36:12;13.00;83.80
63219;DHT22;49320;52.512;13.448;2023-03-14T01:38:39;14.90;85.10
63219;DHT22;49320;52.512;13.448;2023-03-14T01:41:08;14.80;85.10
63219;DHT22;49320;52.512;13.448;2023-03-14T01:43:41;14.90;85.30
63219;DHT22;49320;52.512;13.448;2023-03-14T01:48:57;14.80;85.40
63219;DHT22;49320;52.512;13.448;2023-03-14T01:51:32;15.00;85.40
63219;DHT22;49320;52.512;13.448;2023-03-14T01:56:46;14.30;85.20
63219;DHT22;49320;52.512;13.448;2023-03-14T01:59:16;14.90;85.60
63219;DHT22;49320;52.512;13.448;2023-03-14T02:01:46;14.90;85.00
63219;DHT22;49320;52.512;13.448;2023-03-14T02:04:17;14.90;85.50
63219;DHT22;49320;52.512;13.448;2023-03-14T02:06:59;14.90;85.40
63219;DHT22;49320;52.512;13.448;2023-03-14T02:09:31;14.90;84.50
63219;DHT22;49320;52.512;13.448;2023-03-14T02:11:58;14.90;85.50
63219;DHT22;49320;52.512;13.448;2023-03-14T02:14:30;14.90;85.60
63219;DHT22;49320;52.512;13.448;2023-03-14T02:17:01;14.90;85.40
63219;DHT22;49320;52.512;13.448;2023-03-14T02:19:43;14.90;85.60
63219;DHT22;49320;52.512;13.448;2023-03-14T02:22:20;14.90;85.30
63219;DHT22;49320;52.512;13.448;2023-03-14T02:27:51;14.90;85.20
63219;DHT22;49320;52.512;13.448;2023-03-14T02:30:21;14.90;85.60
63219;DHT22;49320;52.512;13.448;2023-03-14T02:32:54;14.90;85.60
63219;DHT22;49320;52.512;13.448;2023-03-14T02:35:27;14.90;85.60
63219;DHT22;49320;52.512;13.448;2023-03-14T02:38:27;14.80;85.60
63219;DHT22;49320;52.512;13.448;2023-03-14T02:41:02;14.80;84.50
63219;DHT22;49320;52.512;13.448;2023-03-14T02:43:29;14.80;85.90
63219;DHT22;49320;52.512;13.448;2023-03-14T02:45:56;14.80;85.20
63219;DHT22;49320;52.512;13.448;2023-03-14T02:48:28;14.90;86.00
63219;DHT22;49320;52.512;13.448;2023-03-14T02:51:02;14.80;85.60
63219;DHT22;49320;52.512;13.448;2023-03-14T02:53:32;14.90;85.90
63219;DHT22;49320;52.512;13.448;2023-03-14T02:56:01;14.80;85.70
63219;DHT22;49320;52.512;13.448;2023-03-14T02:58:28;14.80;85.80
63219;DHT22;49320;52.512;13.448;2023-03-14T03:00:55;14.80;85.80
63219;DHT22;49320;52.512;13.448;2023-03-14T03:03:22;14.80;85.80
63219;DHT22;49320;52.512;13.448;2023-03-14T03:05:51;14.80;84.00
63219;DHT22;49320;52.512;13.448;2023-03-14T03:08:20;14.80;85.50
63219;DHT22;49320;52.512;13.448;2023-03-14T03:10:49;14.80;85.60
63219;DHT22;49320;52.512;13.448;2023-03-14T03:13:17;14.80;85.70
63219;DHT22;49320;52.512;13.448;2023-03-14T03:15:45;14.80;85.70
63219;DHT22;49320;52.512;13.448;2023-03-14T03:18:12;14.80;85.70
63219;DHT22;49320;52.512;13.448;2023-03-14T03:20:39;14.80;85.70
63219;DHT22;49320;52.512;13.448;2023-03-14T03:23:06;14.80;84.20
63219;DHT22;49320;52.512;13.448;2023-03-14T03:25:33;14.70;85.70
63219;DHT22;49320;52.512;13.448;2023-03-14T03:28:00;14.70;85.70
63219;DHT22;49320;52.512;13.448;2023-03-14T03:30:26;14.70;85.70
63219;DHT22;49320;52.512;13.448;2023-03-14T03:32:53;14.70;85.80
63219;DHT22;49320;52.512;13.448;2023-03-14T03:35:20;14.70;85.70
63219;DHT22;49320;52.512;13.448;2023-03-14T03:37:47;14.70;85.80
63219;DHT22;49320;52.512;13.448;2023-03-14T03:40:14;14.10;85.50
63219;DHT22;49320;52.512;13.448;2023-03-14T03:42:40;14.60;85.80
63219;DHT22;49320;52.512;13.448;2023-03-14T03:45:07;14.60;85.80
63219;DHT22;49320;52.512;13.448;2023-03-14T03:47:35;14.60;85.90
63219;DHT22;49320;52.512;13.448;2023-03-14T03:50:02;14.60;85.80
63219;DHT22;49320;52.512;13.448;2023-03-14T03:52:29;14.60;85.90
63219;DHT22;49320;52.512;13.448;2023-03-14T03:54:55;14.50;85.80
63219;DHT22;49320;52.512;13.448;2023-03-14T03:57:22;14.50;85.90
63219;DHT22;49320;52.512;13.448;2023-03-14T03:59:49;14.50;85.80
63219;DHT22;49320;52.512;13.448;2023-03-14T04:02:16;12.30;84.40
63219;DHT22;49320;52.512;13.448;2023-03-14T04:04:43;14.50;85.80
63219;DHT22;49320;52.512;13.448;2023-03-14T04:07:10;14.40;85.80
63219;DHT22;49320;52.512;13.448;2023-03-14T04:09:39;14.40;85.90
63219;DHT22;49320;52.512;13.448;2023-03-14T04:12:06;14.40;85.90
63219;DHT22;49320;52.512;13.448;2023-03-14T04:14:33;14.40;86.00
63219;DHT22;49320;52.512;13.448;2023-03-14T04:17:00;14.40;85.90
63219;DHT22;49320;52.512;13.448;2023-03-14T04:19:27;14.30;85.90
63219;DHT22;49320;52.512;13.448;2023-03-14T04:21:53;14.30;85.80
63219;DHT22;49320;52.512;13.448;2023-03-14T04:24:20;14.30;84.70
63219;DHT22;49320;52.512;13.448;2023-03-14T04:26:47;14.30;86.00
63219;DHT22;49320;52.512;13.448;2023-03-14T04:29:14;14.30;86.00
63219;DHT22;49320;52.512;13.448;2023-03-14T04:31:41;14.30;86.00
63219;DHT22;49320;52.512;13.448;2023-03-14T04:34:08;14.30;86.10
63219;DHT22;49320;52.512;13.448;2023-03-14T04:36:35;14.30;86.00
63219;DHT22;49320;52.512;13.448;2023-03-14T04:39:05;14.30;86.00
63219;DHT22;49320;52.512;13.448;2023-03-14T04:41:31;14.30;86.00
63219;DHT22;49320;52.512;13.448;2023-03-14T04:43:58;14.30;85.90
63219;DHT22;49320;52.512;13.448;2023-03-14T04:46:25;14.30;85.80
63219;DHT22;49320;52.512;13.448;2023-03-14T04:48:52;14.30;85.90
63219;DHT22;49320;52.512;13.448;2023-03-14T04:51:19;14.20;85.60
63219;DHT22;49320;52.512;13.448;2023-03-14T04:53:45;14.20;85.10
63219;DHT22;49320;52.512;13.448;2023-03-14T04:56:12;14.20;85.80
63219;DHT22;49320;52.512;13.448;2023-03-14T05:01:06;14.20;85.30
63219;DHT22;49320;52.512;13.448;2023-03-14T05:03:33;14.30;85.90
63219;DHT22;49320;52.512;13.448;2023-03-14T05:06:02;14.30;85.90
63219;DHT22;49320;52.512;13.448;2023-03-14T05:08:29;14.20;85.90
63219;DHT22;49320;52.512;13.448;2023-03-14T05:10:57;14.20;86.00
63219;DHT22;49320;52.512;13.448;2023-03-14T05:13:24;14.30;85.90
63219;DHT22;49320;52.512;13.448;2023-03-14T05:15:51;14.30;85.70
63219;DHT22;49320;52.512;13.448;2023-03-14T05:18:18;14.20;85.70
63219;DHT22;49320;52.512;13.448;2023-03-14T05:20:45;14.30;85.70
63219;DHT22;49320;52.512;13.448;2023-03-14T05:23:12;14.30;84.30
63219;DHT22;49320;52.512;13.448;2023-03-14T05:25:39;14.30;85.30
63219;DHT22;49320;52.512;13.448;2023-03-14T05:28:06;14.30;85.40
63219;DHT22;49320;52.512;13.448;2023-03-14T05:30:32;14.30;85.40
63219;DHT22;49320;52.512;13.448;2023-03-14T05:33:00;14.20;85.40
63219;DHT22;49320;52.512;13.448;2023-03-14T05:35:27;14.30;85.30
63219;DHT22;49320;52.512;13.448;2023-03-14T05:37:54;14.30;85.30
63219;DHT22;49320;52.512;13.448;2023-03-14T05:40:20;14.30;85.40
63219;DHT22;49320;52.512;13.448;2023-03-14T05:42:47;14.30;85.30
63219;DHT22;49320;52.512;13.448;2023-03-14T05:45:14;14.30;85.10
63219;DHT22;49320;52.512;13.448;2023-03-14T05:47:41;14.70;85.30
63219;DHT22;49320;52.512;13.448;2023-03-14T05:50:09;14.30;84.90
63219;DHT22;49320;52.512;13.448;2023-03-14T05:52:37;14.30;85.00
63219;DHT22;49320;52.512;13.448;2023-03-14T05:55:04;14.30;84.80
63219;DHT22;49320;52.512;13.448;2023-03-14T05:57:31;14.30;84.70
63219;DHT22;49320;52.512;13.448;2023-03-14T06:02:25;14.40;84.00
63219;DHT22;49320;52.512;13.448;2023-03-14T06:04:52;14.40;84.40
63219;DHT22;49320;52.512;13.448;2023-03-14T06:07:19;14.40;84.40
63219;DHT22;49320;52.512;13.448;2023-03-14T06:09:46;14.40;84.50
63219;DHT22;49320;52.512;13.448;2023-03-14T06:12:12;14.40;84.20
63219;DHT22;49320;52.512;13.448;2023-03-14T06:14:39;14.40;84.20
63219;DHT22;49320;52.512;13.448;2023-03-14T06:17:06;14.40;84.00
63219;DHT22;49320;52.512;13.448;2023-03-14T06:19:33;14.50;84.10
63219;DHT22;49320;52.512;13.448;2023-03-14T06:22:00;14.50;84.00
63219;DHT22;49320;52.512;13.448;2023-03-14T06:26:54;14.50;83.00
63219;DHT22;49320;52.512;13.448;2023-03-14T06:31:48;14.60;83.00
63219;DHT22;49320;52.512;13.448;2023-03-14T06:34:15;14.60;83.50
63219;DHT22;49320;52.512;13.448;2023-03-14T06:36:41;14.60;83.30
63219;DHT22;49320;52.512;13.448;2023-03-14T06:39:08;14.60;82.10
63219;DHT22;49320;52.512;13.448;2023-03-14T06:41:35;14.60;83.10
63219;DHT22;49320;52.512;13.448;2023-03-14T06:44:02;14.60;82.30
63219;DHT22;49320;52.512;13.448;2023-03-14T06:46:29;14.70;83.10
63219;DHT22;49320;52.512;13.448;2023-03-14T06:48:56;14.70;83.00
63219;DHT22;49320;52.512;13.448;2023-03-14T06:51:23;14.70;82.90
63219;DHT22;49320;52.512;13.448;2023-03-14T06:53:50;14.80;83.00
63219;DHT22;49320;52.512;13.448;2023-03-14T06:56:17;14.80;82.70
63219;DHT22;49320;52.512;13.448;2023-03-14T06:58:43;14.90;82.20
63219;DHT22;49320;52.512;13.448;2023-03-14T07:01:25;14.90;81.10
63219;DHT22;49320;52.512;13.448;2023-03-14T07:03:54;15.00;81.50
63219;DHT22;49320;52.512;13.448;2023-03-14T07:06:22;14.90;81.80
63219;DHT22;49320;52.512;13.448;2023-03-14T07:08:49;15.00;81.60
63219;DHT22;49320;52.512;13.448;2023-03-14T07:11:16;15.10;82.00
63219;DHT22;49320;52.512;13.448;2023-03-14T07:13:43;15.10;81.80
63219;DHT22;49320;52.512;13.448;2023-03-14T07:16:09;15.20;81.70
63219;DHT22;49320;52.512;13.448;2023-03-14T07:18:36;15.20;80.90
63219;DHT22;49320;52.512;13.448;2023-03-14T07:21:05;15.30;81.50
63219;DHT22;49320;52.512;13.448;2023-03-14T07:23:33;15.30;79.30
63219;DHT22;49320;52.512;13.448;2023-03-14T07:26:00;15.30;79.40
63219;DHT22;49320;52.512;13.448;2023-03-14T07:28:27;15.40;80.90
63219;DHT22;49320;52.512;13.448;2023-03-14T07:30:54;15.40;80.70
63219;DHT22;49320;52.512;13.448;2023-03-14T07:33:21;15.40;80.30
63219;DHT22;49320;52.512;13.448;2023-03-14T07:35:49;15.40;80.50
63219;DHT22;49320;52.512;13.448;2023-03-14T07:38:16;15.30;80.10
63219;DHT22;49320;52.512;13.448;2023-03-14T07:43:13;15.40;79.90
63219;DHT22;49320;52.512;13.448;2023-03-14T07:45:39;15.40;80.40
63219;DHT22;49320;52.512;13.448;2023-03-14T07:48:08;15.50;80.30
63219;DHT22;49320;52.512;13.448;2023-03-14T07:50:36;15.50;80.10
63219;DHT22;49320;52.512;13.448;2023-03-14T07:53:03;15.40;79.70
63219;DHT22;49320;52.512;13.448;2023-03-14T07:55:29;15.40;79.80
63219;DHT22;49320;52.512;13.448;2023-03-14T07:57:56;15.40;79.60
63219;DHT22;49320;52.512;13.448;2023-03-14T08:00:23;15.40;79.30
63219;DHT22;49320;52.512;13.448;2023-03-14T08:02:50;15.40;79.60
63219;DHT22;49320;52.512;13.448;2023-03-14T08:05:17;15.40;79.30
63219;DHT22;49320;52.512;13.448;2023-03-14T08:07:43;15.40;79.30
63219;DHT22;49320;52.512;13.448;2023-03-14T08:10:11;15.30;79.30
63219;DHT22;49320;52.512;13.448;2023-03-14T08:12:42;15.30;78.60
63219;DHT22;49320;52.512;13.448;2023-03-14T08:15:09;15.30;79.00
63219;DHT22;49320;52.512;13.448;2023-03-14T08:17:36;15.30;79.50
63219;DHT22;49320;52.512;13.448;2023-03-14T08:20:04;15.40;79.70
63219;DHT22;49320;52.512;13.448;2023-03-14T08:22:35;15.50;77.70
63219;DHT22;49320;52.512;13.448;2023-03-14T08:25:02;15.40;79.60
63219;DHT22;49320;52.512;13.448;2023-03-14T08:27:29;15.50;79.80
63219;DHT22;49320;52.512;13.448;2023-03-14T08:32:24;15.70;79.00
63219;DHT22;49320;52.512;13.448;2023-03-14T08:34:50;15.80;78.50
63219;DHT22;49320;52.512;13.448;2023-03-14T08:37:17;15.80;78.70
63219;DHT22;49320;52.512;13.448;2023-03-14T08:39:52;15.90;78.60
63219;DHT22;49320;52.512;13.448;2023-03-14T08:42:20;16.00;78.70
63219;DHT22;49320;52.512;13.448;2023-03-14T08:44:46;16.10;78.70
63219;DHT22;49320;52.512;13.448;2023-03-14T08:47:13;16.20;78.30
63219;DHT22;49320;52.512;13.448;2023-03-14T08:49:40;16.20;78.10
63219;DHT22;49320;52.512;13.448;2023-03-14T08:52:07;16.30;77.90
63219;DHT22;49320;52.512;13.448;2023-03-14T08:54:34;16.30;77.90
63219;DHT22;49320;52.512;13.448;2023-03-14T08:57:01;16.30;75.60
63219;DHT22;49320;52.512;13.448;2023-03-14T08:59:28;16.40;77.10
63219;DHT22;49320;52.512;13.448;2023-03-14T09:01:55;16.50;76.80
63219;DHT22;49320;52.512;13.448;2023-03-14T09:04:22;16.40;76.70
63219;DHT22;49320;52.512;13.448;2023-03-14T09:06:48;16.50;76.60
63219;DHT22;49320;52.512;13.448;2023-03-14T09:09:15;16.50;76.40
63219;DHT22;49320;52.512;13.448;2023-03-14T09:11:42;16.60;75.80
63219;DHT22;49320;52.512;13.448;2023-03-14T09:14:09;16.50;76.30
63219;DHT22;49320;52.512;13.448;2023-03-14T09:16:36;16.60;76.20
63219;DHT22;49320;52.512;13.448;2023-03-14T09:19:02;16.60;76.20
63219;DHT22;49320;52.512;13.448;2023-03-14T09:21:30;16.70;73.70
63219;DHT22;49320;52.512;13.448;2023-03-14T09:23:56;16.70;74.10
63219;DHT22;49320;52.512;13.448;2023-03-14T09:26:23;16.80;75.90
63219;DHT22;49320;52.512;13.448;2023-03-14T09:28:50;16.80;76.20
63219;DHT22;49320;52.512;13.448;2023-03-14T09:31:17;16.90;75.60
63219;DHT22;49320;52.512;13.448;2023-03-14T09:33:44;16.90;75.10
63219;DHT22;49320;52.512;13.448;2023-03-14T09:36:11;17.00;73.40
63219;DHT22;49320;52.512;13.448;2023-03-14T09:38:39;17.00;75.00
63219;DHT22;49320;52.512;13.448;2023-03-14T09:41:18;17.00;74.60
63219;DHT22;49320;52.512;13.448;2023-03-14T09:43:55;17.00;73.30
63219;DHT22;49320;52.512;13.448;2023-03-14T09:46:29;17.00;72.50
63219;DHT22;49320;52.512;13.448;2023-03-14T09:48:57;17.10;74.30
63219;DHT22;49320;52.512;13.448;2023-03-14T09:51:24;17.00;73.50
63219;DHT22;49320;52.512;13.448;2023-03-14T09:53:52;17.10;74.10
63219;DHT22;49320;52.512;13.448;2023-03-14T09:56:23;17.20;73.90
63219;DHT22;49320;52.512;13.448;2023-03-14T09:58:56;17.30;73.10
63219;DHT22;49320;52.512;13.448;2023-03-14T10:01:28;17.30;72.70
63219;DHT22;49320;52.512;13.448;2023-03-14T10:04:02;17.40;72.80
63219;DHT22;49320;52.512;13.448;2023-03-14T10:06:33;17.40;72.30
63219;DHT22;49320;52.512;13.448;2023-03-14T10:09:02;17.40;72.60
63219;DHT22;49320;52.512;13.448;2023-03-14T10:11:30;17.40;71.70
63219;DHT22;49320;52.512;13.448;2023-03-14T10:14:06;17.40;72.40
63219;DHT22;49320;52.512;13.448;2023-03-14T10:16:41;17.40;70.90
63219;DHT22;49320;52.512;13.448;2023-03-14T10:19:16;17.50;71.80
63219;DHT22;49320;52.512;13.448;2023-03-14T10:21:50;17.50;71.50
63219;DHT22;49320;52.512;13.448;2023-03-14T10:24:22;17.50;70.10
63219;DHT22;49320;52.512;13.448;2023-03-14T10:26:55;17.50;71.30
63219;DHT22;49320;52.512;13.448;2023-03-14T10:29:28;17.50;71.60
63219;DHT22;49320;52.512;13.448;2023-03-14T10:32:05;17.50;69.00
63219;DHT22;49320;52.512;13.448;2023-03-14T10:34:38;17.60;71.40
63219;DHT22;49320;52.512;13.448;2023-03-14T10:37:18;17.60;70.90
63219;DHT22;49320;52.512;13.448;2023-03-14T10:39:53;17.60;69.30
63219;DHT22;49320;52.512;13.448;2023-03-14T10:42:29;17.60;70.10
63219;DHT22;49320;52.512;13.448;2023-03-14T10:45:06;17.50;69.60
63219;DHT22;49320;52.512;13.448;2023-03-14T10:47:53;17.60;68.90
63219;DHT22;49320;52.512;13.448;2023-03-14T10:50:29;17.50;70.10
63219;DHT22;49320;52.512;13.448;2023-03-14T10:53:01;17.50;68.70
63219;DHT22;49320;52.512;13.448;2023-03-14T10:55:43;17.50;66.40
63219;DHT22;49320;52.512;13.448;2023-03-14T10:58:28;17.50;67.60
63219;DHT22;49320;52.512;13.448;2023-03-14T11:01:11;17.50;68.10
63219;DHT22;49320;52.512;13.448;2023-03-14T11:03:52;17.50;67.80
63219;DHT22;49320;52.512;13.448;2023-03-14T11:06:49;17.50;68.40
63219;DHT22;49320;52.512;13.448;2023-03-14T11:09:38;17.40;68.50
63219;DHT22;49320;52.512;13.448;2023-03-14T11:12:33;17.30;67.60
63219;DHT22;49320;52.512;13.448;2023-03-14T11:21:28;17.50;67.40
63219;DHT22;49320;52.512;13.448;2023-03-14T11:30:04;17.50;67.40
63219;DHT22;49320;52.512;13.448;2023-03-14T11:35:45;17.50;67.20
63219;DHT22;49320;52.512;13.448;2023-03-14T11:38:40;17.50;67.50
63219;DHT22;49320;52.512;13.448;2023-03-14T11:43:55;17.60;66.80
63219;DHT22;49320;52.512;13.448;2023-03-14T11:46:34;17.60;67.80
63219;DHT22;49320;52.512;13.448;2023-03-14T11:51:57;17.60;66.40
63219;DHT22;49320;52.512;13.448;2023-03-14T11:54:32;17.50;67.80
63219;DHT22;49320;52.512;13.448;2023-03-14T11:57:15;17.60;66.10
63219;DHT22;49320;52.512;13.448;2023-03-14T11:59:51;17.60;67.40
63219;DHT22;49320;52.512;13.448;2023-03-14T12:08:32;17.70;67.20
63219;DHT22;49320;52.512;13.448;2023-03-14T12:13:59;17.80;68.20
63219;DHT22;49320;52.512;13.448;2023-03-14T12:16:33;17.80;68.40
63219;DHT22;49320;52.512;13.448;2023-03-14T12:22:32;17.90;67.80
63219;DHT22;49320;52.512;13.448;2023-03-14T12:24:57;17.90;68.30
63219;DHT22;49320;52.512;13.448;2023-03-14T12:27:47;18.00;67.90
63219;DHT22;49320;52.512;13.448;2023-03-14T12:30:26;18.10;67.20
63219;DHT22;49320;52.512;13.448;2023-03-14T12:41:23;18.10;67.10
63219;DHT22;49320;52.512;13.448;2023-03-14T12:43:55;18.20;66.60
63219;DHT22;49320;52.512;13.448;2023-03-14T12:46:23;18.20;67.90
63219;DHT22;49320;52.512;13.448;2023-03-14T12:51:29;18.20;67.60
63219;DHT22;49320;52.512;13.448;2023-03-14T12:57:25;18.20;67.30
63219;DHT22;49320;52.512;13.448;2023-03-14T13:02:45;18.30;68.00
63219;DHT22;49320;52.512;13.448;2023-03-14T13:05:19;18.20;68.40
63219;DHT22;49320;52.512;13.448;2023-03-14T13:13:24;18.30;68.30
63219;DHT22;49320;52.512;13.448;2023-03-14T13:16:00;18.30;67.70
63219;DHT22;49320;52.512;13.448;2023-03-14T13:18:39;18.30;68.40
63219;DHT22;49320;52.512;13.448;2023-03-14T13:21:19;18.20;68.20
63219;DHT22;49320;52.512;13.448;2023-03-14T13:24:02;18.10;67.70
63219;DHT22;49320;52.512;13.448;2023-03-14T13:26:40;18.10;68.80
63219;DHT22;49320;52.512;13.448;2023-03-14T13:29:23;18.00;69.10
63219;DHT22;49320;52.512;13.448;2023-03-14T13:31:53;17.80;69.30
63219;DHT22;49320;52.512;13.448;2023-03-14T13:34:26;17.80;70.10
63219;DHT22;49320;52.512;13.448;2023-03-14T13:36:55;17.70;70.60
63219;DHT22;49320;52.512;13.448;2023-03-14T13:39:25;17.60;71.20
63219;DHT22;49320;52.512;13.448;2023-03-14T13:41:59;17.50;71.50
63219;DHT22;49320;52.512;13.448;2023-03-14T13:44:31;17.50;72.10
63219;DHT22;49320;52.512;13.448;2023-03-14T13:47:02;17.50;72.30
63219;DHT22;49320;52.512;13.448;2023-03-14T13:49:32;17.50;71.80
63219;DHT22;49320;52.512;13.448;2023-03-14T13:52:02;17.40;72.50
63219;DHT22;49320;52.512;13.448;2023-03-14T13:54:31;17.40;72.90
63219;DHT22;49320;52.512;13.448;2023-03-14T13:57:05;17.30;73.10
63219;DHT22;49320;52.512;13.448;2023-03-14T13:59:33;17.30;73.00
63219;DHT22;49320;52.512;13.448;2023-03-14T14:02:09;17.30;72.80
63219;DHT22;49320;52.512;13.448;2023-03-14T14:04:43;17.30;73.40
63219;DHT22;49320;52.512;13.448;2023-03-14T14:07:14;17.30;73.50
63219;DHT22;49320;52.512;13.448;2023-03-14T14:09:48;17.30;73.80
63219;DHT22;49320;52.512;13.448;2023-03-14T14:12:25;17.40;72.60
63219;DHT22;49320;52.512;13.448;2023-03-14T14:15:04;17.40;72.40
63219;DHT22;49320;52.512;13.448;2023-03-14T14:17:43;17.40;72.50
63219;DHT22;49320;52.512;13.448;2023-03-14T14:20:21;17.30;72.10
63219;DHT22;49320;52.512;13.448;2023-03-14T14:22:50;17.30;70.70
63219;DHT22;49320;52.512;13.448;2023-03-14T14:25:18;17.30;72.30
63219;DHT22;49320;52.512;13.448;2023-03-14T14:27:50;17.30;72.40
63219;DHT22;49320;52.512;13.448;2023-03-14T14:32:49;17.30;72.40
63219;DHT22;49320;52.512;13.448;2023-03-14T14:35:34;17.20;72.00
63219;DHT22;49320;52.512;13.448;2023-03-14T14:38:10;17.30;72.40
63219;DHT22;49320;52.512;13.448;2023-03-14T14:40:48;17.30;72.10
63219;DHT22;49320;52.512;13.448;2023-03-14T14:43:20;17.30;72.40
63219;DHT22;49320;52.512;13.448;2023-03-14T14:45:53;17.30;71.00
63219;DHT22;49320;52.512;13.448;2023-03-14T14:48:23;17.30;72.20
63219;DHT22;49320;52.512;13.448;2023-03-14T14:51:01;17.40;72.30
63219;DHT22;49320;52.512;13.448;2023-03-14T14:56:03;17.50;71.60
63219;DHT22;49320;52.512;13.448;2023-03-14T14:58:40;17.40;71.80
63219;DHT22;49320;52.512;13.448;2023-03-14T15:01:19;17.50;71.10
63219;DHT22;49320;52.512;13.448;2023-03-14T15:03:51;17.60;70.40
63219;DHT22;49320;52.512;13.448;2023-03-14T15:06:20;17.60;70.00
63219;DHT22;49320;52.512;13.448;2023-03-14T15:08:54;17.60;71.00
63219;DHT22;49320;52.512;13.448;2023-03-14T15:11:24;17.70;70.90
63219;DHT22;49320;52.512;13.448;2023-03-14T15:13:52;17.70;70.70
63219;DHT22;49320;52.512;13.448;2023-03-14T15:16:22;17.70;70.70
63219;DHT22;49320;52.512;13.448;2023-03-14T15:18:55;17.60;70.60
63219;DHT22;49320;52.512;13.448;2023-03-14T15:21:32;17.70;70.40
63219;DHT22;49320;52.512;13.448;2023-03-14T15:23:59;17.60;69.00
63219;DHT22;49320;52.512;13.448;2023-03-14T15:26:27;17.60;67.10
63219;DHT22;49320;52.512;13.448;2023-03-14T15:28:54;17.40;64.10
63219;DHT22;49320;52.512;13.448;2023-03-14T15:31:21;17.00;62.60
63219;DHT22;49320;52.512;13.448;2023-03-14T15:33:48;16.30;61.70
63219;DHT22;49320;52.512;13.448;2023-03-14T15:36:27;15.60;63.40
63219;DHT22;49320;52.512;13.448;2023-03-14T15:38:56;14.10;65.20
63219;DHT22;49320;52.512;13.448;2023-03-14T15:41:25;13.50;68.00
63219;DHT22;49320;52.512;13.448;2023-03-14T15:43:53;13.20;68.10
63219;DHT22;49320;52.512;13.448;2023-03-14T15:46:21;12.50;70.50
63219;DHT22;49320;52.512;13.448;2023-03-14T15:48:50;11.80;74.10
63219;DHT22;49320;52.512;13.448;2023-03-14T15:51:18;11.70;75.00
63219;DHT22;49320;52.512;13.448;2023-03-14T15:53:45;11.30;76.00
63219;DHT22;49320;52.512;13.448;2023-03-14T15:56:15;11.00;77.30
63219;DHT22;49320;52.512;13.448;2023-03-14T15:58:44;13.10;80.10
63219;DHT22;49320;52.512;13.448;2023-03-14T16:01:14;10.30;78.00
63219;DHT22;49320;52.512;13.448;2023-03-14T16:03:45;9.90;77.50
63219;DHT22;49320;52.512;13.448;2023-03-14T16:06:13;9.60;77.30
63219;DHT22;49320;52.512;13.448;2023-03-14T16:08:41;9.10;76.90
63219;DHT22;49320;52.512;13.448;2023-03-14T16:11:10;8.60;76.80
63219;DHT22;49320;52.512;13.448;2023-03-14T16:13:38;8.30;78.80
63219;DHT22;49320;52.512;13.448;2023-03-14T16:16:06;7.90;79.50
63219;DHT22;49320;52.512;13.448;2023-03-14T16:18:35;7.60;80.90
63219;DHT22;49320;52.512;13.448;2023-03-14T16:21:13;7.30;82.20
63219;DHT22;49320;52.512;13.448;2023-03-14T16:23:42;6.90;82.30
63219;DHT22;49320;52.512;13.448;2023-03-14T16:26:12;6.30;84.70
63219;DHT22;49320;52.512;13.448;2023-03-14T16:28:41;6.50;85.80
63219;DHT22;49320;52.512;13.448;2023-03-14T16:31:11;6.10;86.90
63219;DHT22;49320;52.512;13.448;2023-03-14T16:33:40;6.00;89.90
63219;DHT22;49320;52.512;13.448;2023-03-14T16:36:10;5.90;89.50
63219;DHT22;49320;52.512;13.448;2023-03-14T16:38:40;5.80;90.10
63219;DHT22;49320;52.512;13.448;2023-03-14T16:41:14;5.60;89.00
63219;DHT22;49320;52.512;13.448;2023-03-14T16:43:43;5.50;90.50
63219;DHT22;49320;52.512;13.448;2023-03-14T16:46:13;5.40;90.00
63219;DHT22;49320;52.512;13.448;2023-03-14T16:48:45;5.20;90.30
63219;DHT22;49320;52.512;13.448;2023-03-14T16:51:12;5.20;91.40
63219;DHT22;49320;52.512;13.448;2023-03-14T16:53:44;5.10;91.80
63219;DHT22;49320;52.512;13.448;2023-03-14T16:56:12;5.00;92.30
63219;DHT22;49320;52.512;13.448;2023-03-14T16:58:40;4.90;92.60
63219;DHT22;49320;52.512;13.448;2023-03-14T17:01:09;4.90;93.00